createdAt,value
2022-11-19T00:01:29.953Z,16.63
2022-11-19T00:03:56.881Z,15.70
2022-11-19T00:06:26.873Z,15.53
2022-11-19T00:08:54.611Z,15.87
2022-11-19T00:11:43.607Z,15.17
2022-11-19T00:14:13.520Z,15.60
2022-11-19T00:16:41.348Z,15.90
2022-11-19T00:19:10.316Z,15.63
2022-11-19T00:21:37.246Z,15.40
2022-11-19T00:24:04.406Z,15.47
2022-11-19T00:26:31.356Z,15.70
2022-11-19T00:28:58.279Z,15.77
2022-11-19T00:31:25.489Z,15.67
2022-11-19T00:33:54.547Z,15.33
2022-11-19T00:36:22.209Z,14.93
2022-11-19T00:38:49.167Z,14.43
2022-11-19T00:41:16.138Z,14.83
2022-11-19T00:43:49.165Z,16.10
2022-11-19T00:46:28.615Z,15.53
2022-11-19T00:48:58.132Z,15.30
2022-11-19T00:51:29.785Z,14.80
2022-11-19T00:53:57.748Z,13.57
2022-11-19T00:56:27.273Z,14.40
2022-11-19T00:58:55.120Z,15.20
2022-11-19T01:01:25.101Z,14.07
2022-11-19T01:03:53.145Z,13.77
2022-11-19T01:06:23.279Z,14.90
2022-11-19T01:08:52.625Z,13.97
2022-11-19T01:11:27.117Z,14.97
2022-11-19T01:13:54.551Z,15.20
2022-11-19T01:16:30.339Z,15.50
2022-11-19T01:18:58.435Z,14.93
2022-11-19T01:21:29.561Z,13.87
2022-11-19T01:23:57.964Z,13.03
2022-11-19T01:26:25.839Z,12.80
2022-11-19T01:28:54.189Z,13.70
2022-11-19T01:31:28.044Z,13.10
2022-11-19T01:33:55.503Z,13.00
2022-11-19T01:36:26.264Z,12.33
2022-11-19T01:38:54.553Z,12.50
2022-11-19T01:41:31.030Z,12.33
2022-11-19T01:44:04.414Z,11.27
2022-11-19T01:46:37.943Z,11.10
2022-11-19T01:49:11.976Z,9.07
2022-11-19T01:51:50.102Z,8.63
2022-11-19T01:54:41.672Z,9.07
2022-11-19T01:57:13.785Z,8.63
2022-11-19T01:59:43.797Z,8.57
2022-11-19T02:02:11.168Z,10.17
2022-11-19T02:04:39.586Z,10.03
2022-11-19T02:07:09.834Z,9.47
2022-11-19T02:09:37.477Z,10.53
2022-11-19T02:12:35.095Z,10.33
2022-11-19T02:15:32.519Z,9.93
2022-11-19T02:18:38.014Z,10.90
2022-11-19T02:21:21.201Z,10.80
2022-11-19T02:24:10.691Z,10.17
2022-11-19T02:26:52.168Z,9.63
2022-11-19T02:29:59.768Z,8.33
2022-11-19T02:32:38.623Z,9.20
2022-11-19T02:35:11.565Z,8.00
2022-11-19T02:37:41.381Z,7.23
2022-11-19T02:40:38.398Z,7.87
2022-11-19T02:43:15.654Z,8.80
2022-11-19T02:45:53.311Z,9.30
2022-11-19T02:48:32.444Z,9.73
2022-11-19T02:51:03.689Z,10.83
2022-11-19T02:53:31.495Z,11.20
2022-11-19T02:56:11.538Z,10.60
2022-11-19T02:59:08.859Z,10.63
2022-11-19T03:01:57.583Z,11.70
2022-11-19T03:04:32.703Z,10.30
2022-11-19T03:07:11.390Z,10.83
2022-11-19T03:10:04.396Z,10.83
2022-11-19T03:12:55.435Z,11.23
2022-11-19T03:16:02.603Z,10.67
2022-11-19T03:18:55.674Z,10.80
2022-11-19T03:21:45.775Z,11.17
2022-11-19T03:24:21.326Z,11.93
2022-11-19T03:27:10.050Z,12.07
2022-11-19T03:29:43.094Z,12.30
2022-11-19T03:32:28.178Z,11.73
2022-11-19T03:35:00.823Z,11.70
2022-11-19T03:37:32.435Z,11.37
2022-11-19T03:40:02.141Z,12.50
2022-11-19T03:42:30.642Z,12.07
2022-11-19T03:45:07.712Z,12.23
2022-11-19T03:47:38.954Z,12.40
2022-11-19T03:50:29.386Z,12.10
2022-11-19T03:53:03.877Z,11.00
2022-11-19T03:55:51.646Z,11.30
2022-11-19T03:58:18.591Z,10.20
2022-11-19T04:00:46.145Z,10.73
2022-11-19T04:03:13.490Z,10.93
2022-11-19T04:05:40.467Z,12.00
2022-11-19T04:08:07.367Z,12.57
2022-11-19T04:10:34.276Z,11.87
2022-11-19T04:13:01.188Z,11.83
2022-11-19T04:15:28.087Z,11.47
2022-11-19T04:17:55.000Z,12.53
2022-11-19T04:20:21.893Z,12.77
2022-11-19T04:22:52.073Z,12.47
2022-11-19T04:25:19.250Z,12.90
2022-11-19T04:27:47.101Z,12.30
2022-11-19T04:30:15.179Z,11.83
2022-11-19T04:32:42.546Z,10.77
2022-11-19T04:35:10.240Z,11.33
2022-11-19T04:37:37.360Z,11.33
2022-11-19T04:40:04.941Z,10.33
2022-11-19T04:42:31.880Z,9.87
2022-11-19T04:44:58.849Z,10.27
2022-11-19T04:47:25.779Z,10.13
2022-11-19T04:49:52.689Z,11.03
2022-11-19T04:52:19.760Z,10.77
2022-11-19T04:54:46.681Z,11.10
2022-11-19T04:57:13.553Z,9.80
2022-11-19T04:59:40.448Z,10.27
2022-11-19T05:02:07.370Z,10.47
2022-11-19T05:04:34.245Z,10.03
2022-11-19T05:07:01.233Z,9.93
2022-11-19T05:09:28.165Z,10.10
2022-11-19T05:11:55.057Z,10.00
2022-11-19T05:14:23.733Z,10.97
2022-11-19T05:16:54.368Z,9.97
2022-11-19T05:19:21.582Z,9.90
2022-11-19T05:21:48.706Z,10.13
2022-11-19T05:24:15.572Z,9.57
2022-11-19T05:26:42.516Z,10.60
2022-11-19T05:29:09.449Z,10.00
2022-11-19T05:31:36.373Z,10.13
2022-11-19T05:34:03.389Z,9.70
2022-11-19T05:36:30.290Z,9.87
2022-11-19T05:38:57.179Z,10.47
2022-11-19T05:41:24.115Z,9.53
2022-11-19T05:43:51.016Z,9.97
2022-11-19T05:46:17.970Z,9.50
2022-11-19T05:48:44.932Z,10.30
2022-11-19T05:51:16.257Z,9.53
2022-11-19T05:53:44.047Z,9.03
2022-11-19T05:56:11.357Z,9.07
2022-11-19T05:58:38.308Z,8.70
2022-11-19T06:01:05.704Z,9.23
2022-11-19T06:03:32.895Z,9.20
2022-11-19T06:05:59.883Z,8.90
2022-11-19T06:08:26.907Z,7.43
2022-11-19T06:10:53.960Z,8.50
2022-11-19T06:13:21.116Z,8.77
2022-11-19T06:15:48.220Z,7.83
2022-11-19T06:18:15.209Z,7.70
2022-11-19T06:20:42.121Z,7.53
2022-11-19T06:23:09.234Z,7.57
2022-11-19T06:25:36.130Z,7.73
2022-11-19T06:28:03.099Z,8.20
2022-11-19T06:30:30.066Z,7.83
2022-11-19T06:32:59.048Z,7.30
2022-11-19T06:35:26.158Z,7.20
2022-11-19T06:37:53.066Z,7.40
2022-11-19T06:40:20.031Z,7.20
2022-11-19T06:42:50.849Z,8.23
2022-11-19T06:45:18.096Z,8.07
2022-11-19T06:47:48.723Z,8.23
2022-11-19T06:50:15.725Z,6.93
2022-11-19T06:52:42.620Z,7.13
2022-11-19T06:55:09.848Z,7.60
2022-11-19T06:57:36.738Z,7.23
2022-11-19T07:00:06.002Z,7.37
2022-11-19T07:02:32.975Z,7.10
2022-11-19T07:04:59.862Z,8.63
2022-11-19T07:07:27.560Z,8.20
2022-11-19T07:09:54.512Z,7.83
2022-11-19T07:12:21.452Z,8.50
2022-11-19T07:14:48.353Z,7.87
2022-11-19T07:17:15.250Z,8.03
2022-11-19T07:19:42.295Z,9.73
2022-11-19T07:22:09.531Z,9.70
2022-11-19T07:24:36.473Z,8.50
2022-11-19T07:27:03.781Z,7.70
2022-11-19T07:29:30.679Z,7.67
2022-11-19T07:31:57.564Z,6.57
2022-11-19T07:34:24.548Z,6.67
2022-11-19T07:36:51.550Z,6.73
2022-11-19T07:39:18.800Z,6.87
2022-11-19T07:42:04.161Z,7.43
2022-11-19T07:44:31.049Z,8.53
2022-11-19T07:46:58.536Z,8.93
2022-11-19T07:49:26.218Z,9.80
2022-11-19T07:51:54.125Z,8.23
2022-11-19T07:54:21.067Z,8.87
2022-11-19T07:56:47.987Z,7.53
2022-11-19T07:59:14.864Z,7.57
2022-11-19T08:01:42.064Z,7.90
2022-11-19T08:04:14.944Z,9.37
2022-11-19T08:06:44.688Z,8.63
2022-11-19T08:09:11.577Z,9.17
2022-11-19T08:11:38.533Z,8.70
2022-11-19T08:14:05.462Z,8.33
2022-11-19T08:16:52.566Z,8.43
2022-11-19T08:19:20.277Z,8.37
2022-11-19T08:21:47.484Z,8.43
2022-11-19T08:24:17.332Z,7.60
2022-11-19T08:26:45.351Z,8.27
2022-11-19T08:29:16.677Z,7.47
2022-11-19T08:31:46.713Z,7.97
2022-11-19T08:34:14.539Z,6.97
2022-11-19T08:36:44.789Z,7.63
2022-11-19T08:39:12.080Z,6.97
2022-11-19T08:41:57.858Z,7.13
2022-11-19T08:44:24.993Z,7.03
2022-11-19T08:46:52.070Z,6.80
2022-11-19T08:49:19.089Z,6.57
2022-11-19T08:51:45.979Z,7.47
2022-11-19T08:54:13.340Z,6.47
2022-11-19T08:56:41.634Z,6.60
2022-11-19T08:59:09.051Z,7.20
2022-11-19T09:01:35.959Z,6.67
2022-11-19T09:04:02.910Z,7.17
2022-11-19T09:06:37.041Z,6.33
2022-11-19T09:09:04.966Z,5.87
2022-11-19T09:11:32.115Z,6.63
2022-11-19T09:13:59.119Z,6.70
2022-11-19T09:16:26.042Z,6.47
2022-11-19T09:18:53.008Z,7.70
2022-11-19T09:21:19.963Z,8.17
2022-11-19T09:23:46.914Z,7.93
2022-11-19T09:26:17.075Z,7.73
2022-11-19T09:28:44.583Z,7.63
2022-11-19T09:31:15.662Z,7.37
2022-11-19T09:33:48.869Z,6.70
2022-11-19T09:36:17.756Z,7.10
2022-11-19T09:38:44.827Z,7.17
2022-11-19T09:41:17.367Z,7.20
2022-11-19T09:44:06.043Z,7.10
2022-11-19T09:46:41.804Z,7.07
2022-11-19T09:49:25.479Z,6.73
2022-11-19T09:51:59.895Z,7.07
2022-11-19T09:54:27.627Z,8.27
2022-11-19T09:56:59.190Z,6.93
2022-11-19T09:59:33.608Z,7.60
2022-11-19T10:02:00.535Z,8.17
2022-11-19T10:04:31.808Z,8.80
2022-11-19T10:07:20.162Z,8.10
2022-11-19T10:10:26.631Z,6.30
2022-11-19T10:13:12.017Z,6.70
2022-11-19T10:16:00.145Z,6.77
2022-11-19T10:18:53.284Z,7.00
2022-11-19T10:21:54.496Z,6.33
2022-11-19T10:24:31.674Z,7.03
2022-11-19T10:27:08.360Z,7.37
2022-11-19T10:29:39.066Z,7.87
2022-11-19T10:32:25.529Z,6.97
2022-11-19T10:34:58.736Z,7.60
2022-11-19T10:37:35.855Z,7.57
2022-11-19T10:40:16.954Z,8.00
2022-11-19T10:42:55.991Z,7.30
2022-11-19T10:45:27.152Z,6.47
2022-11-19T10:48:21.754Z,6.03
2022-11-19T10:50:49.556Z,6.30
2022-11-19T10:53:17.315Z,6.07
2022-11-19T10:55:54.237Z,5.90
2022-11-19T10:58:28.622Z,6.37
2022-11-19T11:00:58.463Z,6.17
2022-11-19T11:03:42.325Z,5.33
2022-11-19T11:06:10.324Z,5.40
2022-11-19T11:08:57.503Z,5.60
2022-11-19T11:11:52.610Z,5.83
2022-11-19T11:14:43.655Z,5.63
2022-11-19T11:17:28.441Z,5.50
2022-11-19T11:20:20.853Z,5.87
2022-11-19T11:22:50.947Z,5.97
2022-11-19T11:25:25.269Z,6.20
2022-11-19T11:28:17.296Z,6.50
2022-11-19T11:31:06.168Z,6.90
2022-11-19T11:33:41.220Z,6.97
2022-11-19T11:36:23.478Z,6.53
2022-11-19T11:38:54.278Z,7.33
2022-11-19T11:44:22.494Z,6.60
2022-11-19T11:46:51.973Z,6.70
2022-11-19T11:49:41.856Z,7.03
2022-11-19T11:52:11.710Z,6.77
2022-11-19T11:55:00.623Z,7.90
2022-11-19T11:57:33.264Z,7.40
2022-11-19T12:00:04.457Z,7.87
2022-11-19T12:02:35.164Z,8.07
2022-11-19T12:05:18.696Z,8.57
2022-11-19T12:08:03.815Z,7.97
2022-11-19T12:10:59.660Z,7.93
2022-11-19T12:13:35.280Z,8.17
2022-11-19T12:16:10.930Z,8.50
2022-11-19T12:19:20.602Z,7.60
2022-11-19T12:22:06.399Z,7.60
2022-11-19T12:24:53.713Z,7.77
2022-11-19T12:28:00.257Z,6.20
2022-11-19T12:30:52.693Z,5.90
2022-11-19T12:33:50.379Z,6.53
2022-11-19T12:37:19.431Z,7.43
2022-11-19T12:40:04.241Z,7.07
2022-11-19T12:42:59.555Z,6.93
2022-11-19T12:45:50.925Z,7.70
2022-11-19T12:48:57.069Z,8.10
2022-11-19T12:51:36.799Z,9.97
2022-11-19T12:54:34.401Z,9.67
2022-11-19T12:57:39.666Z,10.10
2022-11-19T13:00:23.371Z,10.03
2022-11-19T13:03:16.509Z,9.97
2022-11-19T13:05:57.740Z,11.00
2022-11-19T13:08:57.284Z,11.13
2022-11-19T13:11:36.467Z,12.30
2022-11-19T13:14:24.094Z,13.33
2022-11-19T13:16:53.684Z,13.17
2022-11-19T13:19:29.774Z,14.67
2022-11-19T13:22:37.453Z,13.30
2022-11-19T13:25:28.175Z,12.90
2022-11-19T13:27:57.709Z,13.93
2022-11-19T13:30:26.998Z,14.40
2022-11-19T13:33:25.768Z,14.47
2022-11-19T13:36:07.464Z,15.03
2022-11-19T13:38:53.567Z,15.43
2022-11-19T13:41:36.026Z,16.53
2022-11-19T13:44:40.296Z,16.93
2022-11-19T13:47:18.816Z,15.50
2022-11-19T13:49:53.377Z,16.37
2022-11-19T13:52:43.571Z,15.13
2022-11-19T13:55:43.375Z,14.60
2022-11-19T13:58:23.982Z,14.53
2022-11-19T14:01:20.042Z,14.57
2022-11-19T14:04:32.549Z,14.07
2022-11-19T14:07:28.065Z,13.93
2022-11-19T14:10:44.090Z,13.60
2022-11-19T14:13:51.188Z,13.00
2022-11-19T14:17:01.510Z,11.83
2022-11-19T14:19:47.308Z,12.70
2022-11-19T14:22:53.806Z,11.90
2022-11-19T14:25:58.004Z,11.33
2022-11-19T14:28:43.797Z,11.43
2022-11-19T14:31:11.397Z,12.10
2022-11-19T14:33:48.342Z,13.17
2022-11-19T14:36:43.711Z,12.47
2022-11-19T14:39:29.335Z,12.53
2022-11-19T14:42:17.581Z,12.50
2022-11-19T14:45:03.618Z,12.87
2022-11-19T14:47:36.668Z,13.13
2022-11-19T14:50:13.657Z,13.23
2022-11-19T14:52:53.917Z,13.77
2022-11-19T14:55:24.891Z,15.87
2022-11-19T14:58:21.814Z,14.40
2022-11-19T15:00:49.206Z,16.40
2022-11-19T15:03:24.847Z,21.20
2022-11-19T15:05:52.234Z,40.50
2022-11-19T15:08:19.043Z,20.60
2022-11-19T15:10:47.811Z,17.67
2022-11-19T15:13:23.848Z,19.73
2022-11-19T15:16:06.053Z,27.67
2022-11-19T15:18:36.024Z,20.33
2022-11-19T15:21:44.789Z,25.00
2022-11-19T15:24:45.992Z,18.73
2022-11-19T15:27:27.074Z,14.77
2022-11-19T15:30:15.463Z,16.57
2022-11-19T15:32:52.114Z,30.17
2022-11-19T15:35:40.074Z,37.77
2022-11-19T15:38:18.478Z,24.53
2022-11-19T15:40:50.103Z,46.33
2022-11-19T15:43:31.207Z,69.40
2022-11-19T15:46:10.081Z,47.37
2022-11-19T15:48:58.119Z,28.37
2022-11-19T15:51:25.122Z,23.43
2022-11-19T15:54:07.082Z,22.27
2022-11-19T15:56:40.031Z,20.97
2022-11-19T15:59:08.508Z,22.23
2022-11-19T16:01:36.074Z,22.33
2022-11-19T16:04:16.341Z,23.87
2022-11-19T16:06:51.080Z,28.70
2022-11-19T16:09:23.261Z,30.63
2022-11-19T16:12:09.528Z,30.80
2022-11-19T16:14:55.007Z,33.90
2022-11-19T16:17:39.777Z,33.10
2022-11-19T16:20:10.251Z,32.17
2022-11-19T16:23:08.760Z,34.20
2022-11-19T16:25:43.390Z,35.57
2022-11-19T16:28:30.311Z,45.57
2022-11-19T16:31:07.270Z,39.67
2022-11-19T16:33:35.079Z,46.03
2022-11-19T16:36:19.475Z,36.23
2022-11-19T16:38:52.200Z,34.60
2022-11-19T16:41:42.070Z,39.23
2022-11-19T16:44:19.056Z,39.67
2022-11-19T16:46:46.652Z,35.80
2022-11-19T16:50:04.462Z,33.30
2022-11-19T16:52:34.462Z,34.07
2022-11-19T16:55:04.701Z,35.67
2022-11-19T16:57:32.614Z,36.83
2022-11-19T17:00:04.795Z,37.60
2022-11-19T17:02:38.698Z,36.83
2022-11-19T17:05:12.748Z,37.67
2022-11-19T17:07:41.633Z,36.90
2022-11-19T17:10:34.717Z,41.30
2022-11-19T17:13:15.132Z,49.93
2022-11-19T17:15:51.639Z,42.97
2022-11-19T17:18:33.154Z,42.37
2022-11-19T17:21:07.165Z,46.93
2022-11-19T17:23:47.177Z,40.27
2022-11-19T17:26:21.906Z,36.13
2022-11-19T17:28:54.050Z,42.43
2022-11-19T17:31:27.271Z,39.90
2022-11-19T17:34:09.615Z,39.27
2022-11-19T17:36:36.623Z,43.63
2022-11-19T17:39:13.029Z,44.50
2022-11-19T17:41:59.287Z,52.70
2022-11-19T17:44:39.357Z,46.70
2022-11-19T17:47:22.806Z,49.60
2022-11-19T17:49:50.660Z,46.67
2022-11-19T17:52:25.429Z,46.07
2022-11-19T17:54:56.275Z,46.43
2022-11-19T17:57:23.202Z,50.47
2022-11-19T17:59:50.130Z,46.00
2022-11-19T18:02:20.623Z,40.27
2022-11-19T18:04:48.423Z,41.57
2022-11-19T18:07:16.000Z,42.63
2022-11-19T18:09:43.046Z,45.83
2022-11-19T18:12:19.425Z,52.40
2022-11-19T18:14:47.705Z,49.33
2022-11-19T18:17:16.497Z,46.60
2022-11-19T18:19:43.808Z,47.23
2022-11-19T18:22:18.571Z,46.87
2022-11-19T18:24:51.361Z,45.93
2022-11-19T18:27:18.376Z,41.33
2022-11-19T18:29:45.567Z,40.63
2022-11-19T18:32:17.268Z,40.27
2022-11-19T18:34:46.441Z,39.67
2022-11-19T18:37:14.021Z,43.37
2022-11-19T18:39:40.988Z,39.57
2022-11-19T18:42:12.024Z,48.70
2022-11-19T18:44:43.817Z,55.43
2022-11-19T18:47:13.970Z,37.13
2022-11-19T18:49:43.385Z,42.73
2022-11-19T18:52:15.033Z,45.17
2022-11-19T18:54:42.186Z,44.53
2022-11-19T18:57:10.433Z,45.93
2022-11-19T18:59:37.397Z,47.83
2022-11-19T19:02:04.909Z,47.00
2022-11-19T19:04:31.891Z,44.43
2022-11-19T19:06:59.263Z,52.00
2022-11-19T19:09:26.629Z,52.13
2022-11-19T19:12:13.773Z,42.37
2022-11-19T19:14:43.115Z,39.87
2022-11-19T19:17:11.295Z,47.93
2022-11-19T19:19:39.310Z,42.50
2022-11-19T19:22:07.593Z,45.03
2022-11-19T19:24:34.969Z,42.10
2022-11-19T19:27:02.960Z,38.37
2022-11-19T19:29:30.082Z,37.30
2022-11-19T19:31:58.355Z,35.17
2022-11-19T19:34:25.403Z,38.37
2022-11-19T19:36:53.654Z,34.87
2022-11-19T19:39:21.218Z,37.20
2022-11-19T19:41:49.248Z,36.80
2022-11-19T19:44:16.711Z,40.57
2022-11-19T19:46:43.876Z,40.40
2022-11-19T19:49:10.874Z,40.93
2022-11-19T19:51:37.847Z,42.17
2022-11-19T19:54:05.114Z,44.43
2022-11-19T19:56:33.484Z,46.63
2022-11-19T19:59:01.969Z,46.23
2022-11-19T20:01:35.295Z,42.07
2022-11-19T20:04:09.796Z,43.70
2022-11-19T20:06:43.779Z,48.10
2022-11-19T20:09:11.112Z,42.60
2022-11-19T20:11:38.096Z,44.93
2022-11-19T20:14:05.701Z,44.50
2022-11-19T20:16:34.237Z,44.63
2022-11-19T20:19:02.284Z,44.40
2022-11-19T20:21:34.045Z,48.23
2022-11-19T20:24:01.345Z,46.10
2022-11-19T20:26:30.933Z,52.87
2022-11-19T20:29:06.587Z,47.53
2022-11-19T20:31:35.069Z,42.30
2022-11-19T20:34:04.800Z,41.77
2022-11-19T20:36:35.463Z,42.57
2022-11-19T20:39:02.812Z,41.83
2022-11-19T20:41:48.328Z,40.07
2022-11-19T20:44:21.066Z,41.43
2022-11-19T20:46:55.092Z,43.50
2022-11-19T20:49:26.908Z,40.43
2022-11-19T20:51:55.178Z,38.30
2022-11-19T20:54:23.728Z,40.17
2022-11-19T20:56:55.825Z,38.27
2022-11-19T20:59:25.447Z,42.47
2022-11-19T21:01:54.374Z,39.03
2022-11-19T21:04:23.156Z,37.87
2022-11-19T21:06:52.587Z,38.63
2022-11-19T21:09:20.415Z,39.53
2022-11-19T21:11:47.742Z,37.50
2022-11-19T21:14:14.726Z,36.20
2022-11-19T21:16:41.749Z,38.37
2022-11-19T21:19:10.554Z,34.73
2022-11-19T21:21:38.147Z,38.27
2022-11-19T21:24:05.660Z,36.97
2022-11-19T21:26:32.613Z,33.60
2022-11-19T21:29:00.519Z,33.90
2022-11-19T21:31:42.343Z,34.90
2022-11-19T21:34:15.492Z,32.80
2022-11-19T21:36:43.969Z,32.43
2022-11-19T21:39:11.663Z,33.07
2022-11-19T21:41:38.907Z,34.27
2022-11-19T21:44:06.429Z,33.33
2022-11-19T21:46:34.382Z,34.93
2022-11-19T21:49:01.860Z,35.20
2022-11-19T21:51:29.150Z,34.50
2022-11-19T21:53:57.556Z,33.97
2022-11-19T21:56:26.839Z,35.70
2022-11-19T21:58:53.825Z,34.37
2022-11-19T22:01:20.812Z,33.30
2022-11-19T22:03:47.809Z,32.83
2022-11-19T22:06:14.801Z,34.20
2022-11-19T22:08:42.938Z,36.73
2022-11-19T22:11:30.786Z,34.50
2022-11-19T22:14:04.589Z,33.63
2022-11-19T22:16:39.681Z,33.53
2022-11-19T22:19:07.212Z,32.93
2022-11-19T22:21:35.190Z,34.10
2022-11-19T22:24:02.343Z,32.03
2022-11-19T22:26:29.353Z,34.03
2022-11-19T22:28:56.992Z,32.70
2022-11-19T22:31:25.303Z,33.20
2022-11-19T22:33:53.095Z,34.10
2022-11-19T22:36:21.712Z,33.57
2022-11-19T22:38:49.273Z,34.70
2022-11-19T22:41:19.168Z,35.00
2022-11-19T22:43:47.080Z,35.20
2022-11-19T22:46:15.270Z,35.97
2022-11-19T22:48:42.487Z,35.17
2022-11-19T22:51:19.037Z,37.23
2022-11-19T22:53:47.303Z,34.57
2022-11-19T22:56:19.461Z,35.10
2022-11-19T22:58:48.606Z,34.67
2022-11-19T23:01:27.815Z,35.57
2022-11-19T23:03:56.296Z,36.03
2022-11-19T23:06:24.002Z,36.33
2022-11-19T23:08:55.104Z,34.87
2022-11-19T23:11:42.249Z,36.37
2022-11-19T23:14:13.756Z,35.97
2022-11-19T23:16:41.832Z,34.83
2022-11-19T23:19:10.884Z,36.03
2022-11-19T23:21:38.526Z,35.30
2022-11-19T23:24:06.092Z,34.23
2022-11-19T23:26:34.048Z,36.07
2022-11-19T23:29:02.256Z,33.90
2022-11-19T23:31:32.419Z,31.33
2022-11-19T23:33:59.909Z,33.60
2022-11-19T23:36:36.071Z,31.73
2022-11-19T23:39:05.128Z,31.27
2022-11-19T23:41:34.046Z,32.57
2022-11-19T23:44:01.205Z,31.73
2022-11-19T23:46:32.849Z,29.33
2022-11-19T23:49:01.229Z,30.37
2022-11-19T23:51:32.005Z,30.33
2022-11-19T23:53:59.365Z,31.87
2022-11-19T23:56:29.270Z,30.03
2022-11-19T23:58:56.432Z,28.80
